Time;durP1;ratioP1;P1;durP2;ratioP2;P2;SDS_P1;SDS_P2;PMS_P1;PMS_P2;Temp;Humidity;BMP_temperature;BMP_pressure;BME280_temperature;BME280_humidity;BME280_pressure;Samples;Min_cycle;Max_cycle;Signal;HPM_P1;HPM_P2
2022/06/22 00:01:10;;;;;;;12.18;5.13;;;;;;;24.13;66.46;100568.34;2110214;28;20166;-75
2022/06/22 00:02:36;;;;;;;14.25;5.18;;;;;;;24.13;66.68;100564.75;2103912;28;20093;-74
2022/06/22 00:04:00;;;;;;;9.85;4.97;;;;;;;24.10;66.60;100563.06;2107437;28;20044;-75
2022/06/22 00:05:40;;;;;;;14.82;5.70;;;;;;;24.11;66.60;100569.31;2106046;28;20521;-75
2022/06/22 00:07:05;;;;;;;11.43;4.93;;;;;;;24.10;66.64;100572.97;2121534;28;20061;-75
2022/06/22 00:08:31;;;;;;;11.32;5.65;;;;;;;24.10;66.43;100568.44;2107070;28;20071;-75
2022/06/22 00:09:57;;;;;;;14.68;5.45;;;;;;;24.11;66.61;100578.31;2101039;28;20052;-75
2022/06/22 00:11:20;;;;;;;10.10;5.57;;;;;;;24.12;66.67;100573.78;2104511;28;20429;-75
2022/06/22 00:12:47;;;;;;;12.05;5.32;;;;;;;24.12;66.48;100580.06;2098206;28;20471;-75
2022/06/22 00:14:18;;;;;;;8.25;5.10;;;;;;;24.14;66.74;100574.59;2097947;28;20717;-75
2022/06/22 00:15:46;;;;;;;13.85;6.15;;;;;;;24.13;66.70;100583.63;2093431;28;20044;-75
2022/06/22 00:17:19;;;;;;;9.80;5.45;;;;;;;24.14;66.67;100593.50;2110325;28;20482;-75
2022/06/22 00:18:45;;;;;;;13.30;5.85;;;;;;;24.14;66.51;100591.66;2099140;28;20048;-75
2022/06/22 00:20:11;;;;;;;10.85;5.40;;;;;;;24.15;66.61;100592.56;2103448;28;20438;-75
2022/06/22 00:21:39;;;;;;;11.60;5.13;;;;;;;24.16;66.66;100596.97;2104028;28;20206;-75
2022/06/22 00:23:25;;;;;;;10.02;4.85;;;;;;;24.16;66.62;100591.56;2103913;28;20458;-75
2022/06/22 00:24:55;;;;;;;13.23;5.22;;;;;;;24.16;66.36;100592.47;2111301;28;20498;-75
2022/06/22 00:26:32;;;;;;;7.20;4.30;;;;;;;24.17;66.34;100593.34;2111699;28;20202;-75
2022/06/22 00:27:54;;;;;;;10.32;4.70;;;;;;;24.14;66.41;100583.56;2115853;27;20047;-75
2022/06/22 00:29:23;;;;;;;10.15;4.93;;;;;;;24.15;66.52;100577.25;2097940;28;20275;-75
2022/06/22 00:30:46;;;;;;;11.00;5.60;;;;;;;24.16;66.36;100575.41;2112024;28;20062;-74
2022/06/22 00:32:17;;;;;;;9.63;5.63;;;;;;;24.15;66.12;100581.75;2100598;28;20102;-75
2022/06/22 00:33:40;;;;;;;14.50;4.93;;;;;;;24.12;66.09;100574.66;2118621;27;20046;-74
2022/06/22 00:35:41;;;;;;;16.23;5.65;;;;;;;24.13;65.88;100581.81;2100305;28;20079;-75
2022/06/22 00:37:07;;;;;;;15.13;5.25;;;;;;;24.10;65.93;100587.34;2090747;28;20142;-75
2022/06/22 00:38:31;;;;;;;13.02;4.95;;;;;;;24.09;66.08;100582.03;2103629;28;20436;-75
2022/06/22 00:39:55;;;;;;;11.75;5.45;;;;;;;24.09;66.05;100582.03;2106060;28;20523;-74
2022/06/22 00:41:21;;;;;;;11.52;5.45;;;;;;;24.10;66.01;100589.16;2109616;28;20055;-75
2022/06/22 00:42:51;;;;;;;12.80;4.93;;;;;;;24.12;65.79;100592.66;2095939;28;20056;-75
2022/06/22 00:44:16;;;;;;;12.10;5.60;;;;;;;24.11;65.79;100591.78;2112267;27;20470;-75
2022/06/22 00:45:37;;;;;;;9.25;5.43;;;;;;;24.12;65.63;100592.66;2110726;28;20597;-75
2022/06/22 00:47:04;;;;;;;11.68;5.20;;;;;;;24.11;65.70;100593.59;2111217;28;20036;-75
2022/06/22 00:48:31;;;;;;;10.93;5.03;;;;;;;24.09;65.84;100593.66;2112524;28;20142;-75
2022/06/22 00:49:55;;;;;;;9.18;4.90;;;;;;;24.11;65.73;100596.31;2109558;28;20046;-74
2022/06/22 00:51:22;;;;;;;16.27;4.60;;;;;;;24.13;65.59;100592.63;2096999;28;20041;-74
2022/06/22 00:52:48;;;;;;;10.88;4.78;;;;;;;24.15;65.25;100584.47;2109290;28;20050;-75
2022/06/22 00:54:16;;;;;;;7.50;4.63;;;;;;;24.14;65.13;100583.56;2105451;28;20380;-74
2022/06/22 00:55:41;;;;;;;12.82;5.25;;;;;;;24.13;65.19;100583.63;2098095;28;20655;-74
2022/06/22 00:57:08;;;;;;;11.13;5.60;;;;;;;24.14;65.21;100580.00;2107626;28;20047;-74
2022/06/22 00:58:39;;;;;;;9.90;4.57;;;;;;;24.11;65.06;100577.41;2095733;28;20114;-74
2022/06/22 01:00:15;;;;;;;10.10;5.30;;;;;;;24.10;65.18;100578.34;2095980;28;20135;-74
2022/06/22 01:01:45;;;;;;;8.02;4.97;;;;;;;24.07;65.27;100579.38;2103938;28;20538;-75
2022/06/22 01:03:19;;;;;;;12.05;5.65;;;;;;;24.08;65.24;100586.53;2096677;28;20045;-75
2022/06/22 01:04:46;;;;;;;9.75;5.47;;;;;;;24.12;65.27;100580.06;2112002;28;20497;-75
2022/06/22 01:06:15;;;;;;;12.77;4.55;;;;;;;24.14;65.22;100580.00;2105702;28;20046;-74
2022/06/22 01:07:42;;;;;;;10.23;5.35;;;;;;;24.15;65.22;100588.03;2106252;28;20100;-75
2022/06/22 01:09:11;;;;;;;11.05;4.80;;;;;;;24.17;65.14;100577.16;2104830;28;20040;-74
2022/06/22 01:10:41;;;;;;;9.07;5.07;;;;;;;24.19;65.10;100573.50;2097575;28;20040;-74
2022/06/22 01:12:22;;;;;;;10.90;6.10;;;;;;;24.21;65.20;100578.81;2102781;28;20055;-74
2022/06/22 01:13:49;;;;;;;9.82;4.95;;;;;;;24.21;65.09;100571.63;2105561;28;20062;-74
2022/06/22 01:15:22;;;;;;;11.10;5.18;;;;;;;24.19;65.18;100567.22;2120591;27;20058;-74
2022/06/22 01:16:47;;;;;;;;;;;;;;;24.15;65.02;100562.88;2099110;28;20048;-74
2022/06/22 01:18:13;;;;;;;10.15;5.32;;;;;;;24.12;65.15;100550.38;2101578;28;19923;-75
2022/06/22 01:19:50;;;;;;;12.57;5.20;;;;;;;24.12;64.93;100544.09;2120269;27;20035;-75
2022/06/22 01:21:19;;;;;;;12.65;5.82;;;;;;;24.08;65.04;100547.91;2098081;28;20052;-74
2022/06/22 01:22:57;;;;;;;10.07;5.03;;;;;;;24.05;65.19;100553.41;2103880;28;20079;-75
2022/06/22 01:24:25;;;;;;;9.95;4.85;;;;;;;24.02;65.09;100553.56;2096188;28;20135;-75
2022/06/22 01:25:57;;;;;;;10.38;6.63;;;;;;;24.01;65.05;100554.50;2106849;28;20080;-75
2022/06/22 01:27:28;;;;;;;;;;;;;;;23.96;65.17;100548.44;2110694;28;20055;-75
2022/06/22 01:28:55;;;;;;;11.50;4.65;;;;;;;23.92;65.23;100550.38;2110256;28;19982;-75
2022/06/22 01:30:23;;;;;;;10.50;4.68;;;;;;;23.91;64.98;100551.31;2105663;28;20052;-75
2022/06/22 01:31:54;;;;;;;10.55;4.97;;;;;;;23.89;64.99;100547.81;2106199;28;20411;-75
2022/06/22 01:33:22;;;;;;;7.82;4.75;;;;;;;23.86;65.19;100547.06;2104630;28;20043;-75
2022/06/22 01:34:48;;;;;;;11.68;5.38;;;;;;;23.84;65.20;100549.81;2098653;28;20036;-74
2022/06/22 01:36:18;;;;;;;9.50;5.38;;;;;;;23.83;65.26;100551.63;2117799;27;20043;-74
2022/06/22 01:37:41;;;;;;;12.77;5.70;;;;;;;23.84;65.19;100544.41;2098481;28;20078;-74
2022/06/22 01:39:04;;;;;;;13.25;5.20;;;;;;;23.82;65.37;100538.22;2101268;27;20369;-74
2022/06/22 01:40:37;;;;;;;13.23;5.05;;;;;;;23.80;65.40;100535.59;2104560;28;20046;-74
2022/06/22 01:42:04;;;;;;;10.15;5.25;;;;;;;23.79;65.39;100530.25;2095604;28;20048;-74
2022/06/22 01:43:31;;;;;;;7.65;4.70;;;;;;;23.79;65.46;100531.13;2111954;27;20070;-74
2022/06/22 01:45:01;;;;;;;10.02;5.63;;;;;;;23.80;65.42;100523.94;2110976;28;20043;-75
2022/06/22 01:46:24;;;;;;;11.10;4.85;;;;;;;23.81;65.43;100523.00;2101593;28;20055;-75
2022/06/22 01:47:52;;;;;;;9.23;5.70;;;;;;;23.84;65.39;100526.41;2102075;28;20047;-74
2022/06/22 01:49:20;;;;;;;11.80;5.50;;;;;;;23.83;65.32;100530.06;2104814;28;20078;-74
2022/06/22 01:50:48;;;;;;;12.20;4.90;;;;;;;23.83;65.51;100538.16;2110976;27;20051;-74
2022/06/22 01:52:14;;;;;;;8.57;4.80;;;;;;;23.83;65.44;100532.75;2114124;28;20050;-75
2022/06/22 01:53:43;;;;;;;10.45;5.13;;;;;;;23.81;65.38;100537.34;2107708;28;20059;-74
2022/06/22 01:55:15;;;;;;;9.00;4.88;;;;;;;23.78;65.25;100540.16;2101804;28;20067;-74
2022/06/22 01:56:44;;;;;;;8.98;4.95;;;;;;;23.76;65.33;100536.66;2096367;28;20090;-74
2022/06/22 01:58:24;;;;;;;11.27;5.32;;;;;;;23.76;65.64;100535.81;2103858;28;20106;-75
2022/06/22 01:59:53;;;;;;;9.60;5.13;;;;;;;23.76;65.34;100550.13;2109138;28;20073;-74
2022/06/22 02:01:19;;;;;;;13.30;5.72;;;;;;;23.77;65.41;100540.22;2102453;28;20086;-74
2022/06/22 02:02:45;;;;;;;8.48;4.63;;;;;;;23.79;65.46;100538.34;2116680;27;20075;-75
2022/06/22 02:04:23;;;;;;;9.30;5.18;;;;;;;23.79;65.26;100536.53;2097025;28;20060;-75
2022/06/22 02:07:44;;;;;;;9.48;5.40;;;;;;;23.77;65.23;100537.53;2106684;28;20132;-74
2022/06/22 02:07:53;;;;;;;8.02;4.53;;;;;;;23.74;65.53;100540.38;2114198;28;20040;-75
2022/06/22 02:09:21;;;;;;;11.40;4.75;;;;;;;23.75;65.42;100537.63;2106929;28;20468;-74
2022/06/22 02:10:48;;;;;;;12.80;5.60;;;;;;;23.78;65.33;100540.16;2104450;28;20070;-74
2022/06/22 02:12:19;;;;;;;11.70;5.13;;;;;;;23.77;65.44;100530.31;2103446;28;20048;-75
2022/06/22 02:13:49;;;;;;;11.30;5.33;;;;;;;23.78;65.31;100531.19;2098341;28;20166;-74
2022/06/22 02:15:20;;;;;;;10.40;5.13;;;;;;;23.78;65.29;100533.88;2103456;28;20303;-74
2022/06/22 02:16:48;;;;;;;16.58;5.82;;;;;;;23.75;65.32;100526.84;2094739;28;20129;-75
2022/06/22 02:18:13;;;;;;;11.13;5.53;;;;;;;23.73;65.42;100535.91;2092738;28;20140;-75
2022/06/22 02:19:36;;;;;;;11.07;5.07;;;;;;;23.71;65.45;100537.78;2100529;28;20075;-75
2022/06/22 02:21:01;;;;;;;8.00;4.95;;;;;;;23.69;65.58;100537.88;2105211;28;20074;-74
2022/06/22 02:22:22;;;;;;;10.88;5.75;;;;;;;23.67;65.58;100539.75;2107312;28;20051;-74
2022/06/22 02:23:48;;;;;;;12.07;5.22;;;;;;;23.66;65.72;100546.06;2104773;28;20062;-74
2022/06/22 02:25:10;;;;;;;13.32;6.72;;;;;;;23.65;65.65;100551.53;2106691;28;20043;-74
2022/06/22 02:26:39;;;;;;;14.80;4.60;;;;;;;23.64;65.83;100556.03;2102992;28;20062;-74
2022/06/22 02:28:00;;;;;;;10.43;5.50;;;;;;;23.63;65.65;100548.88;2105071;28;20078;-75
2022/06/22 02:29:26;;;;;;;9.00;5.10;;;;;;;23.65;65.72;100552.41;2104119;28;20150;-75
2022/06/22 02:30:51;;;;;;;10.23;5.25;;;;;;;23.67;65.89;100549.66;2105727;28;20127;-75
2022/06/22 02:32:17;;;;;;;9.90;4.97;;;;;;;23.69;65.82;100551.34;2111150;28;20399;-75
2022/06/22 02:33:45;;;;;;;8.85;4.97;;;;;;;23.70;65.85;100552.19;2100559;28;20145;-74
2022/06/22 02:35:09;;;;;;;9.93;5.10;;;;;;;23.68;66.02;100554.97;2094927;28;20079;-74
2022/06/22 02:36:37;;;;;;;7.60;4.70;;;;;;;23.69;65.97;100553.16;2105900;28;20411;-74
2022/06/22 02:38:05;;;;;;;9.45;5.75;;;;;;;23.71;66.01;100549.44;2110253;28;20210;-74
2022/06/22 02:39:30;;;;;;;11.60;5.18;;;;;;;23.73;65.86;100549.38;2108213;28;20051;-74
2022/06/22 02:44:31;;;;;;;10.43;5.50;;;;;;;23.78;66.21;100548.25;2079292;28;20049;-74
2022/06/22 02:45:57;;;;;;;11.82;4.90;;;;;;;23.82;65.84;100540.94;2117568;27;20103;-75
2022/06/22 02:47:25;;;;;;;10.73;5.90;;;;;;;23.83;66.07;100542.66;2101606;28;20051;-74
2022/06/22 02:48:51;;;;;;;8.10;4.88;;;;;;;23.83;65.82;100548.03;2118325;27;20575;-74
2022/06/22 02:50:20;;;;;;;8.77;5.05;;;;;;;23.83;66.02;100545.34;2107371;28;20129;-74
2022/06/22 02:51:45;;;;;;;10.18;5.55;;;;;;;23.79;65.91;100549.13;2111718;28;20054;-74
2022/06/22 02:53:17;;;;;;;13.27;5.47;;;;;;;23.77;65.98;100543.78;2105018;28;20163;-74
2022/06/22 02:54:47;;;;;;;10.95;5.07;;;;;;;23.75;66.17;100542.13;2110354;28;20087;-74
2022/06/22 02:56:14;;;;;;;10.32;4.97;;;;;;;23.72;66.12;100537.72;2106426;27;20068;-74
2022/06/22 02:57:44;;;;;;;9.35;5.07;;;;;;;23.71;66.15;100535.97;2113619;28;20514;-74
2022/06/22 02:59:07;;;;;;;9.85;5.30;;;;;;;23.70;66.37;100541.41;2106969;28;20127;-74
2022/06/22 03:00:35;;;;;;;9.07;5.85;;;;;;;23.68;66.43;100535.22;2105553;28;20126;-75
2022/06/22 03:02:00;;;;;;;8.98;4.88;;;;;;;23.67;66.52;100542.44;2111509;28;20138;-74
2022/06/22 03:03:23;;;;;;;9.13;5.32;;;;;;;23.66;66.64;100545.19;2104053;28;20051;-74
2022/06/22 03:04:47;;;;;;;12.40;5.60;;;;;;;23.67;66.75;100541.56;2106561;28;20092;-74
2022/06/22 03:06:13;;;;;;;8.73;4.93;;;;;;;23.68;66.73;100543.31;2109042;28;20073;-74
2022/06/22 03:07:39;;;;;;;12.25;5.78;;;;;;;23.68;66.83;100543.31;2111228;28;20075;-74
2022/06/22 03:09:03;;;;;;;9.48;5.22;;;;;;;23.67;66.88;100542.44;2109760;28;20047;-75
2022/06/22 03:10:29;;;;;;;10.05;5.28;;;;;;;23.70;66.94;100546.81;2104980;28;20048;-74
2022/06/22 03:11:56;;;;;;;9.45;5.35;;;;;;;23.72;66.99;100542.25;2102896;28;20036;-74
2022/06/22 03:13:23;;;;;;;10.35;5.25;;;;;;;23.77;67.08;100545.63;2099989;28;20053;-74
2022/06/22 03:14:52;;;;;;;9.32;4.97;;;;;;;23.84;67.10;100539.91;2104677;28;20071;-74
2022/06/22 03:16:22;;;;;;;10.57;5.13;;;;;;;23.90;66.78;100541.44;2112081;28;20142;-74
2022/06/22 03:17:45;;;;;;;10.20;5.35;;;;;;;23.92;66.82;100541.41;2111677;28;20329;-74
2022/06/22 03:19:12;;;;;;;10.02;5.60;;;;;;;23.96;66.74;100538.50;2112444;28;20051;-74
2022/06/22 03:20:43;;;;;;;7.93;4.80;;;;;;;23.99;66.74;100548.28;2102921;28;20127;-74
2022/06/22 03:22:04;;;;;;;9.05;4.43;;;;;;;23.99;66.74;100538.38;2106178;28;20044;-74
2022/06/22 03:23:33;;;;;;;13.10;5.10;;;;;;;24.04;66.57;100551.66;2097082;28;20044;-74
2022/06/22 03:25:02;;;;;;;9.43;4.78;;;;;;;24.05;66.66;100543.50;2115662;27;20066;-74
2022/06/22 03:26:27;;;;;;;10.98;5.20;;;;;;;24.08;66.63;100529.91;2107602;28;20040;-73
2022/06/22 03:27:53;;;;;;;10.15;5.50;;;;;;;24.15;66.73;100535.91;2106596;28;20051;-73
2022/06/22 03:29:23;;;;;;;11.50;4.72;;;;;;;24.20;66.52;100544.69;2111368;28;20117;-74
2022/06/22 03:30:51;;;;;;;11.27;5.28;;;;;;;24.25;66.27;100534.56;2099245;28;20079;-74
2022/06/22 03:32:20;;;;;;;13.70;5.32;;;;;;;24.33;66.39;100539.63;2105572;28;20095;-74
2022/06/22 03:33:50;;;;;;;7.32;4.65;;;;;;;24.40;66.31;100541.09;2105439;28;20138;-74
2022/06/22 03:35:16;;;;;;;8.82;4.65;;;;;;;24.48;65.95;100534.41;2106556;28;20067;-74
2022/06/22 03:36:44;;;;;;;10.38;4.82;;;;;;;24.56;65.65;100548.44;2102702;28;20052;-74
2022/06/22 03:38:11;;;;;;;11.13;5.15;;;;;;;24.65;65.41;100538.16;2108175;28;20036;-74
2022/06/22 03:39:39;;;;;;;9.23;5.15;;;;;;;24.73;65.26;100541.41;2097690;28;20124;-74
2022/06/22 03:41:05;;;;;;;9.82;4.80;;;;;;;24.81;65.10;100533.81;2094363;28;20080;-74
2022/06/22 03:42:33;;;;;;;9.85;4.70;;;;;;;24.92;65.04;100536.91;2102442;28;20039;-74
2022/06/22 03:44:00;;;;;;;11.68;5.25;;;;;;;25.02;64.88;100530.13;2104345;28;20052;-74
2022/06/22 03:45:28;;;;;;;9.90;4.32;;;;;;;25.13;64.47;100535.91;2114069;27;20047;-74
2022/06/22 03:46:54;;;;;;;7.47;4.50;;;;;;;25.20;64.51;100534.66;2096597;28;20472;-74
2022/06/22 03:48:22;;;;;;;9.50;4.45;;;;;;;25.27;64.14;100541.50;2111061;28;20071;-74
2022/06/22 03:49:49;;;;;;;8.85;4.18;;;;;;;25.38;64.13;100535.59;2089981;28;20503;-74
2022/06/22 03:51:20;;;;;;;10.85;4.80;;;;;;;25.49;64.00;100540.44;2103358;28;20091;-74
2022/06/22 03:52:49;;;;;;;7.10;4.03;;;;;;;25.59;63.46;100545.38;2111003;28;20051;-74
2022/06/22 03:54:16;;;;;;;9.20;4.43;;;;;;;25.68;63.16;100546.72;2104467;28;20055;-74
2022/06/22 03:55:43;;;;;;;8.73;4.47;;;;;;;25.79;63.05;100553.38;2096363;28;20068;-74
2022/06/22 03:57:10;;;;;;;12.82;4.78;;;;;;;25.91;62.58;100546.44;2101052;28;20163;-74
2022/06/22 03:58:33;;;;;;;10.93;3.88;;;;;;;26.02;62.29;100551.28;2102623;28;20072;-74
2022/06/22 03:59:57;;;;;;;7.63;4.03;;;;;;;26.16;62.20;100541.50;2098878;28;20060;-74
2022/06/22 04:01:20;;;;;;;8.80;4.38;;;;;;;26.30;61.81;100554.34;2095952;28;20168;-74
2022/06/22 04:02:43;;;;;;;9.50;3.90;;;;;;;26.44;61.30;100559.06;2110123;28;20051;-73
2022/06/22 04:04:06;;;;;;;6.95;4.18;;;;;;;26.56;60.95;100551.13;2101846;28;20139;-75
2022/06/22 04:05:39;;;;;;;8.95;4.10;;;;;;;26.73;60.33;100555.63;2097715;28;20145;-74
2022/06/22 04:07:02;;;;;;;13.57;3.45;;;;;;;26.86;59.75;100559.41;2110670;28;20040;-74
2022/06/22 04:08:28;;;;;;;6.82;3.53;;;;;;;27.01;59.25;100556.84;2107979;28;20112;-74
2022/06/22 04:09:53;;;;;;;11.35;4.78;;;;;;;27.14;58.92;100557.91;2110921;28;20078;-74
2022/06/22 04:11:24;;;;;;;9.27;5.32;;;;;;;27.25;57.80;100561.78;2118148;28;20051;-75
2022/06/22 04:12:49;;;;;;;5.72;3.95;;;;;;;27.37;57.56;100562.94;2110203;28;20511;-74
2022/06/22 04:14:16;;;;;;;6.72;3.55;;;;;;;27.48;56.90;100559.59;2109714;28;20463;-75
2022/06/22 04:15:44;;;;;;;9.50;3.75;;;;;;;27.59;56.20;100566.19;2117302;28;20059;-74
2022/06/22 04:17:17;;;;;;;9.50;4.60;;;;;;;27.73;55.74;100554.53;2113231;28;20131;-74
2022/06/22 04:18:46;;;;;;;5.72;3.60;;;;;;;27.90;55.54;100561.66;2106638;28;20044;-74
2022/06/22 04:20:20;;;;;;;6.15;3.80;;;;;;;28.09;54.94;100559.63;2102857;28;20471;-75
2022/06/22 04:21:48;;;;;;;11.00;4.55;;;;;;;28.28;54.25;100544.00;2109230;28;20831;-75
2022/06/22 04:23:11;;;;;;;11.65;3.60;;;;;;;28.43;53.78;100548.47;2110161;28;20087;-75
2022/06/22 04:24:43;;;;;;;8.18;3.63;;;;;;;28.60;53.31;100547.41;2088587;28;20065;-75
2022/06/22 04:26:12;;;;;;;5.88;3.40;;;;;;;28.82;52.72;100553.28;2091520;28;20093;-75
2022/06/22 04:27:39;;;;;;;8.00;3.92;;;;;;;29.02;52.09;100553.84;2100226;28;20040;-74
2022/06/22 04:29:06;;;;;;;6.45;3.33;;;;;;;29.19;50.51;100549.09;2108544;28;20039;-75
2022/06/22 04:30:31;;;;;;;8.73;3.90;;;;;;;29.29;49.74;100546.63;2098400;28;20072;-74
2022/06/22 04:31:59;;;;;;;4.95;3.00;;;;;;;29.46;49.48;100551.00;2102391;28;20105;-74
2022/06/22 04:33:28;;;;;;;9.45;3.83;;;;;;;29.68;49.20;100543.13;2107315;28;20066;-74
2022/06/22 04:34:55;;;;;;;7.50;3.20;;;;;;;29.91;48.80;100549.75;2096966;28;20044;-74
2022/06/22 04:36:22;;;;;;;7.50;3.38;;;;;;;30.13;47.76;100552.78;2102537;28;20052;-75
2022/06/22 04:37:53;;;;;;;7.05;3.08;;;;;;;30.35;46.93;100549.44;2102076;28;20090;-75
2022/06/22 04:39:19;;;;;;;7.63;3.10;;;;;;;30.48;46.39;100547.59;2101251;28;20531;-75
2022/06/22 04:40:53;;;;;;;7.53;3.08;;;;;;;30.66;45.96;100549.03;2100406;28;20051;-74
2022/06/22 04:42:16;;;;;;;9.30;3.85;;;;;;;30.85;45.93;100554.91;2117660;28;20644;-75
2022/06/22 04:43:39;;;;;;;6.90;3.08;;;;;;;31.07;45.15;100556.13;2105816;28;20464;-75
2022/06/22 04:45:01;;;;;;;7.05;3.58;;;;;;;31.21;44.23;100547.81;2110388;28;20043;-75
2022/06/22 04:46:29;;;;;;;8.88;3.70;;;;;;;31.34;43.91;100548.66;2109344;28;20657;-74
2022/06/22 04:47:53;;;;;;;7.13;3.25;;;;;;;31.39;43.71;100551.03;2103702;28;20051;-74
2022/06/22 04:49:22;;;;;;;8.00;3.58;;;;;;;31.50;43.50;100543.81;2099517;28;20392;-75
2022/06/22 04:50:46;;;;;;;5.88;3.30;;;;;;;31.70;43.37;100546.91;2111046;28;20044;-75
2022/06/22 04:52:17;;;;;;;6.93;3.60;;;;;;;31.94;42.20;100547.78;2101023;28;20043;-75
2022/06/22 04:53:45;;;;;;;6.53;3.30;;;;;;;32.09;41.79;100546.59;2108851;28;20088;-75
2022/06/22 04:55:11;;;;;;;6.18;2.95;;;;;;;32.17;41.27;100554.22;2106460;28;20055;-75
2022/06/22 04:56:37;;;;;;;6.38;2.95;;;;;;;32.35;40.98;100550.94;2110564;28;20111;-75
2022/06/22 04:58:04;;;;;;;4.90;3.00;;;;;;;32.53;40.44;100553.19;2106267;28;20051;-75
2022/06/22 04:59:28;;;;;;;4.65;2.83;;;;;;;32.69;39.95;100561.97;2119379;27;20071;-75
2022/06/22 05:00:49;;;;;;;5.97;2.92;;;;;;;32.79;39.42;100560.22;2098630;28;20152;-76
2022/06/22 05:02:14;;;;;;;8.20;3.10;;;;;;;32.88;38.88;100562.25;2107325;28;20058;-75
2022/06/22 05:03:36;;;;;;;4.78;2.65;;;;;;;33.03;38.42;100565.56;2103945;28;20472;-75
2022/06/22 05:05:05;;;;;;;5.97;3.05;;;;;;;33.30;38.42;100562.47;2100153;28;20075;-75
2022/06/22 05:06:33;;;;;;;8.52;2.75;;;;;;;33.47;37.29;100565.59;2118676;27;20051;-75
2022/06/22 05:08:00;;;;;;;6.82;3.45;;;;;;;33.67;37.06;100569.41;2107538;28;20055;-75
2022/06/22 05:09:27;;;;;;;6.63;3.47;;;;;;;33.84;36.48;100570.75;2106518;28;20044;-75
2022/06/22 05:10:52;;;;;;;6.22;2.95;;;;;;;33.77;36.60;100567.66;2107076;28;20400;-75
2022/06/22 05:12:19;;;;;;;4.25;3.05;;;;;;;33.90;36.80;100562.88;2112048;28;20051;-75
2022/06/22 05:13:45;;;;;;;6.15;2.53;;;;;;;34.20;36.33;100566.75;2114564;28;20047;-75
2022/06/22 05:15:18;;;;;;;5.78;2.70;;;;;;;34.43;36.06;100564.75;2115305;27;20502;-76
2022/06/22 05:16:40;;;;;;;4.90;2.50;;;;;;;34.49;35.50;100559.59;2110093;28;20066;-75
2022/06/22 05:18:06;;;;;;;4.80;2.70;;;;;;;34.56;35.32;100570.91;2105926;27;20059;-76
2022/06/22 05:19:41;;;;;;;5.55;2.72;;;;;;;34.67;34.40;100571.69;2114079;28;20044;-76
2022/06/22 05:21:12;;;;;;;5.53;3.05;;;;;;;34.62;34.25;100575.84;2112035;28;20055;-75
2022/06/22 05:22:35;;;;;;;4.30;2.67;;;;;;;34.53;34.57;100573.94;2102146;28;20598;-75
2022/06/22 05:24:02;;;;;;;5.30;2.80;;;;;;;34.66;34.00;100580.06;2108356;28;20168;-74
2022/06/22 05:25:25;;;;;;;5.30;2.72;;;;;;;34.60;33.85;100570.50;2106825;28;20669;-75
2022/06/22 05:26:50;;;;;;;3.80;2.30;;;;;;;34.46;33.89;100570.00;2106702;28;20047;-76
2022/06/22 05:28:16;;;;;;;4.80;2.80;;;;;;;34.35;34.36;100571.78;2101598;28;20434;-76
2022/06/22 05:29:43;;;;;;;4.43;2.50;;;;;;;34.37;34.02;100583.50;2110192;28;20040;-75
2022/06/22 05:31:09;;;;;;;3.38;2.25;;;;;;;34.61;33.50;100585.97;2089317;28;20148;-75
2022/06/22 05:32:36;;;;;;;5.40;3.08;;;;;;;34.82;32.76;100585.09;2099826;28;20044;-75
2022/06/22 05:34:01;;;;;;;5.07;2.50;;;;;;;35.04;32.19;100587.69;2104734;28;20046;-75
2022/06/22 05:35:30;;;;;;;7.18;2.63;;;;;;;35.26;31.70;100590.25;2104643;28;20059;-76
2022/06/22 05:37:00;;;;;;;6.10;2.50;;;;;;;35.44;31.08;100591.34;2105876;28;20059;-76
2022/06/22 05:38:23;;;;;;;6.28;2.53;;;;;;;35.66;31.06;100592.97;2112717;28;20086;-75
2022/06/22 05:39:46;;;;;;;4.57;2.25;;;;;;;35.89;30.93;100600.00;2111257;28;20419;-75
2022/06/22 05:41:12;;;;;;;6.18;2.30;;;;;;;36.17;30.54;100591.97;2103338;28;20728;-75
2022/06/22 05:42:34;;;;;;;9.18;4.25;;;;;;;36.40;30.03;100587.88;2108382;28;20039;-75
2022/06/22 05:43:59;;;;;;;4.53;2.35;;;;;;;36.60;29.66;100592.34;2108344;28;20109;-75
2022/06/22 05:45:24;;;;;;;15.13;2.30;;;;;;;36.75;29.63;100598.28;2108180;28;20075;-75
2022/06/22 05:46:51;;;;;;;4.00;2.25;;;;;;;36.90;29.34;100594.03;2111381;28;20120;-76
2022/06/22 05:48:19;;;;;;;3.28;2.10;;;;;;;36.93;29.04;100601.13;2109259;28;20082;-75
2022/06/22 05:49:48;;;;;;;4.10;2.40;;;;;;;36.95;28.74;100599.09;2116504;27;20039;-74
2022/06/22 05:51:17;;;;;;;3.03;2.22;;;;;;;36.87;28.15;100602.59;2105842;28;20056;-75
2022/06/22 05:52:46;;;;;;;8.77;2.80;;;;;;;36.87;28.35;100602.59;2111184;27;20653;-75
2022/06/22 05:54:16;;;;;;;7.70;2.80;;;;;;;36.92;28.26;100608.53;2109289;27;20121;-75
2022/06/22 05:55:48;;;;;;;6.00;2.40;;;;;;;37.08;28.42;100610.66;2103423;28;20097;-75
2022/06/22 05:57:15;;;;;;;;;;;;;;;37.04;28.31;100618.34;2088077;28;20424;-76
2022/06/22 05:58:45;;;;;;;4.35;2.55;;;;;;;37.21;28.09;100619.47;2105515;28;19926;-75
2022/06/22 06:00:14;;;;;;;6.20;2.90;;;;;;;37.32;28.01;100618.41;2103148;28;20465;-75
2022/06/22 06:01:44;;;;;;;5.85;2.33;;;;;;;37.34;27.75;100619.13;2101864;28;20072;-75
2022/06/22 06:03:16;;;;;;;5.82;2.60;;;;;;;37.36;27.69;100625.34;2093799;28;20443;-76
2022/06/22 06:04:43;;;;;;;6.78;2.38;;;;;;;37.40;27.68;100619.41;2088619;28;20567;-75
2022/06/22 06:06:07;;;;;;;3.53;2.40;;;;;;;37.48;27.74;100622.22;2102436;28;20407;-76
2022/06/22 06:07:34;;;;;;;5.22;2.60;;;;;;;37.55;27.55;100622.50;2104679;28;20148;-75
2022/06/22 06:08:59;;;;;;;6.47;2.75;;;;;;;37.62;27.53;100611.75;2111895;28;20600;-75
2022/06/22 06:10:24;;;;;;;3.05;2.38;;;;;;;37.59;27.43;100609.31;2106337;28;20079;-76
2022/06/22 06:11:50;;;;;;;4.53;2.35;;;;;;;37.64;27.10;100606.97;2099888;28;20093;-76
2022/06/22 06:13:21;;;;;;;4.68;2.60;;;;;;;37.64;26.94;100610.59;2095088;28;20102;-76
2022/06/22 06:14:48;;;;;;;3.53;2.40;;;;;;;37.72;26.85;100610.69;2097027;28;20511;-75
2022/06/22 06:16:18;;;;;;;4.50;2.20;;;;;;;37.81;26.36;100622.69;2103209;28;20101;-76
2022/06/22 06:17:45;;;;;;;5.95;2.53;;;;;;;37.86;26.66;100609.28;2115830;27;20047;-76
2022/06/22 06:19:08;;;;;;;5.57;2.53;;;;;;;37.99;26.45;100614.44;2102108;28;20056;-74
2022/06/22 06:20:35;;;;;;;4.22;2.10;;;;;;;38.01;26.38;100609.63;2111190;28;20040;-76
2022/06/22 06:22:03;;;;;;;3.75;2.30;;;;;;;37.97;26.48;100606.31;2100909;28;20049;-76
2022/06/22 06:23:31;;;;;;;5.05;2.30;;;;;;;38.09;26.56;100604.22;2089762;28;20115;-76
2022/06/22 06:28:33;;;;;;;4.13;2.30;;;;;;;38.17;26.13;100609.81;2113878;28;20058;-75
2022/06/22 06:30:00;;;;;;;3.35;2.08;;;;;;;38.09;25.97;100613.34;2103988;28;20038;-74
2022/06/22 06:31:28;;;;;;;5.38;2.25;;;;;;;38.05;26.21;100611.94;2108235;28;20047;-75
2022/06/22 06:32:58;;;;;;;5.38;2.42;;;;;;;37.97;26.55;100616.47;2120197;27;20133;-75
2022/06/22 06:34:25;;;;;;;7.63;2.78;;;;;;;38.01;26.85;100612.41;2096826;28;20040;-76
2022/06/22 06:35:53;;;;;;;4.93;2.33;;;;;;;38.03;26.84;100602.09;2094626;28;20041;-75
2022/06/22 06:37:22;;;;;;;4.93;2.85;;;;;;;38.03;26.49;100602.94;2095891;28;20390;-75
2022/06/22 06:38:50;;;;;;;8.10;2.83;;;;;;;37.98;26.67;100601.66;2097929;28;20075;-76
2022/06/22 06:40:17;;;;;;;5.32;2.20;;;;;;;37.83;26.99;100598.56;2116422;27;20051;-73
2022/06/22 06:41:44;;;;;;;3.90;2.10;;;;;;;37.73;27.01;100597.78;2107480;28;20056;-75
2022/06/22 06:43:25;;;;;;;6.00;2.40;;;;;;;37.69;27.24;100605.47;2094428;28;20056;-75
2022/06/22 06:44:50;;;;;;;4.10;2.53;;;;;;;37.80;27.15;100601.66;2107025;28;20047;-75
2022/06/22 06:46:21;;;;;;;6.35;3.78;;;;;;;37.85;26.94;100602.91;2111413;28;20086;-75
2022/06/22 06:47:48;;;;;;;3.75;2.40;;;;;;;37.83;26.50;100601.31;2105923;27;20056;-75
2022/06/22 06:49:16;;;;;;;10.40;2.55;;;;;;;37.72;27.00;100609.81;2088080;28;20045;-76
2022/06/22 06:50:41;;;;;;;7.28;3.08;;;;;;;37.76;26.90;100602.97;2109361;28;20482;-75
2022/06/22 06:52:21;;;;;;;4.60;2.25;;;;;;;37.71;26.90;100608.94;2099154;28;20114;-75
2022/06/22 06:53:49;;;;;;;7.93;2.70;;;;;;;37.22;28.36;100607.41;2104628;28;20408;-79